sensor_id;sensor_type;location;lat;lon;timestamp;P1;durP1;ratioP1;P2;durP2;ratioP2
10985;SDS011;5546;48.714;8.738;2022-09-12T00:01:22;8.27;;;7.47;;
10985;SDS011;5546;48.714;8.738;2022-09-12T00:03:50;8.87;;;7.97;;
10985;SDS011;5546;48.714;8.738;2022-09-12T00:06:18;8.47;;;7.50;;
10985;SDS011;5546;48.714;8.738;2022-09-12T00:09:06;9.07;;;7.80;;
10985;SDS011;5546;48.714;8.738;2022-09-12T00:11:34;10.13;;;7.10;;
10985;SDS011;5546;48.714;8.738;2022-09-12T00:14:01;8.10;;;7.30;;
10985;SDS011;5546;48.714;8.738;2022-09-12T00:16:29;8.77;;;7.40;;
10985;SDS011;5546;48.714;8.738;2022-09-12T00:18:56;8.73;;;7.27;;
10985;SDS011;5546;48.714;8.738;2022-09-12T00:21:22;10.17;;;8.30;;
10985;SDS011;5546;48.714;8.738;2022-09-12T00:23:48;9.17;;;8.00;;
10985;SDS011;5546;48.714;8.738;2022-09-12T00:26:15;8.10;;;7.30;;
10985;SDS011;5546;48.714;8.738;2022-09-12T00:28:42;8.70;;;7.60;;
10985;SDS011;5546;48.714;8.738;2022-09-12T00:31:09;10.60;;;8.10;;
10985;SDS011;5546;48.714;8.738;2022-09-12T00:33:37;9.53;;;8.60;;
10985;SDS011;5546;48.714;8.738;2022-09-12T00:36:04;9.33;;;8.03;;
10985;SDS011;5546;48.714;8.738;2022-09-12T00:38:31;9.97;;;8.13;;
10985;SDS011;5546;48.714;8.738;2022-09-12T00:40:57;8.97;;;8.17;;
10985;SDS011;5546;48.714;8.738;2022-09-12T00:45:55;10.27;;;8.13;;
10985;SDS011;5546;48.714;8.738;2022-09-12T00:48:23;9.03;;;8.13;;
10985;SDS011;5546;48.714;8.738;2022-09-12T00:50:55;12.33;;;7.73;;
10985;SDS011;5546;48.714;8.738;2022-09-12T00:53:22;11.97;;;8.63;;
10985;SDS011;5546;48.714;8.738;2022-09-12T00:55:48;9.17;;;8.17;;
10985;SDS011;5546;48.714;8.738;2022-09-12T00:58:19;8.43;;;7.63;;
10985;SDS011;5546;48.714;8.738;2022-09-12T01:00:49;19.30;;;7.60;;
10985;SDS011;5546;48.714;8.738;2022-09-12T01:03:16;11.13;;;8.00;;
10985;SDS011;5546;48.714;8.738;2022-09-12T01:05:47;10.17;;;7.30;;
10985;SDS011;5546;48.714;8.738;2022-09-12T01:08:29;9.73;;;7.30;;
10985;SDS011;5546;48.714;8.738;2022-09-12T01:10:56;9.97;;;8.20;;
10985;SDS011;5546;48.714;8.738;2022-09-12T01:13:22;12.07;;;7.60;;
10985;SDS011;5546;48.714;8.738;2022-09-12T01:15:48;11.03;;;7.93;;
10985;SDS011;5546;48.714;8.738;2022-09-12T01:26:51;11.40;;;7.63;;
10985;SDS011;5546;48.714;8.738;2022-09-12T01:29:55;12.37;;;7.73;;
10985;SDS011;5546;48.714;8.738;2022-09-12T01:40:27;9.07;;;8.10;;
10985;SDS011;5546;48.714;8.738;2022-09-12T01:43:13;9.60;;;8.70;;
10985;SDS011;5546;48.714;8.738;2022-09-12T01:48:27;13.57;;;7.90;;
10985;SDS011;5546;48.714;8.738;2022-09-12T01:50:58;9.77;;;8.10;;
10985;SDS011;5546;48.714;8.738;2022-09-12T01:53:37;8.57;;;7.80;;
10985;SDS011;5546;48.714;8.738;2022-09-12T01:56:11;8.90;;;8.10;;
10985;SDS011;5546;48.714;8.738;2022-09-12T01:58:50;8.63;;;7.73;;
10985;SDS011;5546;48.714;8.738;2022-09-12T02:03:57;8.20;;;7.33;;
10985;SDS011;5546;48.714;8.738;2022-09-12T02:06:40;8.40;;;7.27;;
10985;SDS011;5546;48.714;8.738;2022-09-12T02:09:26;7.73;;;6.70;;
10985;SDS011;5546;48.714;8.738;2022-09-12T02:11:58;9.00;;;7.33;;
10985;SDS011;5546;48.714;8.738;2022-09-12T02:14:26;9.23;;;6.70;;
10985;SDS011;5546;48.714;8.738;2022-09-12T02:17:01;10.20;;;7.50;;
10985;SDS011;5546;48.714;8.738;2022-09-12T02:19:33;8.57;;;7.77;;
10985;SDS011;5546;48.714;8.738;2022-09-12T02:22:04;7.57;;;6.80;;
10985;SDS011;5546;48.714;8.738;2022-09-12T02:24:39;13.07;;;7.47;;
10985;SDS011;5546;48.714;8.738;2022-09-12T02:27:09;7.93;;;7.23;;
10985;SDS011;5546;48.714;8.738;2022-09-12T02:29:36;6.87;;;6.10;;
10985;SDS011;5546;48.714;8.738;2022-09-12T02:32:07;8.37;;;6.70;;
10985;SDS011;5546;48.714;8.738;2022-09-12T02:37:22;6.90;;;6.30;;
10985;SDS011;5546;48.714;8.738;2022-09-12T02:39:53;8.00;;;6.77;;
10985;SDS011;5546;48.714;8.738;2022-09-12T02:42:21;6.80;;;6.20;;
10985;SDS011;5546;48.714;8.738;2022-09-12T02:44:47;12.73;;;6.40;;
10985;SDS011;5546;48.714;8.738;2022-09-12T02:47:17;7.20;;;5.83;;
10985;SDS011;5546;48.714;8.738;2022-09-12T02:49:48;6.53;;;5.90;;
10985;SDS011;5546;48.714;8.738;2022-09-12T02:52:14;6.83;;;6.23;;
10985;SDS011;5546;48.714;8.738;2022-09-12T02:54:40;7.10;;;5.70;;
10985;SDS011;5546;48.714;8.738;2022-09-12T02:57:16;13.67;;;6.63;;
10985;SDS011;5546;48.714;8.738;2022-09-12T02:59:42;6.40;;;5.90;;
10985;SDS011;5546;48.714;8.738;2022-09-12T03:24:27;5.47;;;4.50;;
10985;SDS011;5546;48.714;8.738;2022-09-12T03:27:16;29.43;;;6.50;;
10985;SDS011;5546;48.714;8.738;2022-09-12T03:29:46;6.30;;;5.80;;
10985;SDS011;5546;48.714;8.738;2022-09-12T03:32:12;8.80;;;5.80;;
10985;SDS011;5546;48.714;8.738;2022-09-12T03:34:38;6.30;;;5.70;;
10985;SDS011;5546;48.714;8.738;2022-09-12T03:37:03;6.37;;;5.77;;
10985;SDS011;5546;48.714;8.738;2022-09-12T03:39:29;6.43;;;5.83;;
10985;SDS011;5546;48.714;8.738;2022-09-12T03:41:55;9.37;;;5.50;;
10985;SDS011;5546;48.714;8.738;2022-09-12T03:44:21;7.30;;;5.83;;
10985;SDS011;5546;48.714;8.738;2022-09-12T03:46:47;8.60;;;6.20;;
10985;SDS011;5546;48.714;8.738;2022-09-12T03:49:12;7.23;;;5.40;;
10985;SDS011;5546;48.714;8.738;2022-09-12T03:51:38;7.13;;;6.47;;
10985;SDS011;5546;48.714;8.738;2022-09-12T03:54:04;6.97;;;6.27;;
10985;SDS011;5546;48.714;8.738;2022-09-12T03:56:30;7.10;;;6.47;;
10985;SDS011;5546;48.714;8.738;2022-09-12T03:58:56;6.87;;;5.77;;
10985;SDS011;5546;48.714;8.738;2022-09-12T04:01:22;7.20;;;5.90;;
10985;SDS011;5546;48.714;8.738;2022-09-12T04:03:48;7.37;;;6.67;;
10985;SDS011;5546;48.714;8.738;2022-09-12T04:06:16;6.07;;;5.47;;
10985;SDS011;5546;48.714;8.738;2022-09-12T04:08:46;9.63;;;5.17;;
10985;SDS011;5546;48.714;8.738;2022-09-12T04:11:14;5.70;;;5.20;;
10985;SDS011;5546;48.714;8.738;2022-09-12T04:13:41;6.60;;;5.17;;
10985;SDS011;5546;48.714;8.738;2022-09-12T04:16:08;5.30;;;4.90;;
10985;SDS011;5546;48.714;8.738;2022-09-12T04:18:34;5.60;;;5.10;;
10985;SDS011;5546;48.714;8.738;2022-09-12T04:21:10;6.27;;;5.67;;
10985;SDS011;5546;48.714;8.738;2022-09-12T04:23:38;9.47;;;6.47;;
10985;SDS011;5546;48.714;8.738;2022-09-12T04:26:04;10.83;;;6.37;;
10985;SDS011;5546;48.714;8.738;2022-09-12T04:28:33;9.67;;;5.77;;
10985;SDS011;5546;48.714;8.738;2022-09-12T04:31:03;10.80;;;6.07;;
10985;SDS011;5546;48.714;8.738;2022-09-12T04:33:31;6.93;;;6.23;;
10985;SDS011;5546;48.714;8.738;2022-09-12T04:36:08;15.40;;;6.37;;
10985;SDS011;5546;48.714;8.738;2022-09-12T04:38:41;17.80;;;6.70;;
10985;SDS011;5546;48.714;8.738;2022-09-12T04:41:12;19.77;;;7.10;;
10985;SDS011;5546;48.714;8.738;2022-09-12T04:43:39;7.00;;;6.17;;
10985;SDS011;5546;48.714;8.738;2022-09-12T04:46:09;9.77;;;6.33;;
10985;SDS011;5546;48.714;8.738;2022-09-12T04:48:35;11.27;;;6.90;;
10985;SDS011;5546;48.714;8.738;2022-09-12T04:51:05;37.83;;;14.00;;
10985;SDS011;5546;48.714;8.738;2022-09-12T04:53:38;16.20;;;7.73;;
10985;SDS011;5546;48.714;8.738;2022-09-12T04:56:06;11.33;;;8.27;;
10985;SDS011;5546;48.714;8.738;2022-09-12T04:58:32;12.40;;;8.47;;
10985;SDS011;5546;48.714;8.738;2022-09-12T05:01:02;8.33;;;7.53;;
10985;SDS011;5546;48.714;8.738;2022-09-12T05:03:29;6.70;;;5.90;;
10985;SDS011;5546;48.714;8.738;2022-09-12T05:05:55;9.97;;;6.90;;
10985;SDS011;5546;48.714;8.738;2022-09-12T05:08:20;6.93;;;6.23;;
10985;SDS011;5546;48.714;8.738;2022-09-12T05:10:46;6.23;;;5.63;;
10985;SDS011;5546;48.714;8.738;2022-09-12T05:13:12;6.67;;;5.70;;
10985;SDS011;5546;48.714;8.738;2022-09-12T05:15:37;28.73;;;7.10;;
10985;SDS011;5546;48.714;8.738;2022-09-12T05:18:03;31.90;;;5.93;;
10985;SDS011;5546;48.714;8.738;2022-09-12T05:20:30;7.43;;;5.77;;
10985;SDS011;5546;48.714;8.738;2022-09-12T05:22:57;7.53;;;6.03;;
10985;SDS011;5546;48.714;8.738;2022-09-12T05:25:23;14.70;;;5.97;;
10985;SDS011;5546;48.714;8.738;2022-09-12T05:27:51;6.43;;;5.83;;
10985;SDS011;5546;48.714;8.738;2022-09-12T05:30:17;18.27;;;5.63;;
10985;SDS011;5546;48.714;8.738;2022-09-12T05:32:42;7.33;;;5.87;;
10985;SDS011;5546;48.714;8.738;2022-09-12T05:35:08;8.93;;;5.37;;
10985;SDS011;5546;48.714;8.738;2022-09-12T05:37:33;6.40;;;5.80;;
10985;SDS011;5546;48.714;8.738;2022-09-12T05:39:59;8.27;;;5.93;;
10985;SDS011;5546;48.714;8.738;2022-09-12T05:42:28;6.60;;;6.00;;
10985;SDS011;5546;48.714;8.738;2022-09-12T05:44:54;9.43;;;6.07;;
10985;SDS011;5546;48.714;8.738;2022-09-12T05:47:20;7.87;;;5.90;;
10985;SDS011;5546;48.714;8.738;2022-09-12T05:49:45;6.37;;;5.77;;
10985;SDS011;5546;48.714;8.738;2022-09-12T05:52:13;6.17;;;5.60;;
10985;SDS011;5546;48.714;8.738;2022-09-12T05:54:38;5.57;;;4.90;;
10985;SDS011;5546;48.714;8.738;2022-09-12T05:57:05;7.20;;;5.50;;
10985;SDS011;5546;48.714;8.738;2022-09-12T05:59:30;6.30;;;5.23;;
10985;SDS011;5546;48.714;8.738;2022-09-12T06:01:56;5.90;;;5.23;;
10985;SDS011;5546;48.714;8.738;2022-09-12T06:04:21;5.97;;;5.37;;
10985;SDS011;5546;48.714;8.738;2022-09-12T06:06:47;5.87;;;5.37;;
10985;SDS011;5546;48.714;8.738;2022-09-12T06:09:13;7.20;;;5.50;;
10985;SDS011;5546;48.714;8.738;2022-09-12T06:11:40;5.17;;;4.67;;
10985;SDS011;5546;48.714;8.738;2022-09-12T06:14:06;5.03;;;4.63;;
10985;SDS011;5546;48.714;8.738;2022-09-12T06:16:33;5.70;;;4.70;;
10985;SDS011;5546;48.714;8.738;2022-09-12T06:19:00;6.43;;;4.50;;
10985;SDS011;5546;48.714;8.738;2022-09-12T06:21:28;5.23;;;4.77;;
10985;SDS011;5546;48.714;8.738;2022-09-12T06:23:58;5.07;;;4.67;;
10985;SDS011;5546;48.714;8.738;2022-09-12T06:26:24;5.30;;;4.80;;
10985;SDS011;5546;48.714;8.738;2022-09-12T06:28:50;5.17;;;4.20;;
10985;SDS011;5546;48.714;8.738;2022-09-12T06:31:18;5.40;;;4.77;;
10985;SDS011;5546;48.714;8.738;2022-09-12T06:33:47;4.50;;;4.10;;
10985;SDS011;5546;48.714;8.738;2022-09-12T06:36:15;4.70;;;4.30;;
10985;SDS011;5546;48.714;8.738;2022-09-12T06:38:42;4.67;;;4.27;;
10985;SDS011;5546;48.714;8.738;2022-09-12T06:41:11;6.10;;;4.60;;
10985;SDS011;5546;48.714;8.738;2022-09-12T06:43:37;5.37;;;4.80;;
10985;SDS011;5546;48.714;8.738;2022-09-12T06:46:04;4.70;;;4.30;;
10985;SDS011;5546;48.714;8.738;2022-09-12T06:48:30;4.60;;;3.90;;
10985;SDS011;5546;48.714;8.738;2022-09-12T06:53:22;4.20;;;3.90;;
10985;SDS011;5546;48.714;8.738;2022-09-12T06:56:10;4.07;;;3.63;;
10985;SDS011;5546;48.714;8.738;2022-09-12T06:58:35;3.90;;;3.60;;
10985;SDS011;5546;48.714;8.738;2022-09-12T07:03:34;4.13;;;3.80;;
10985;SDS011;5546;48.714;8.738;2022-09-12T07:06:05;3.67;;;3.37;;
10985;SDS011;5546;48.714;8.738;2022-09-12T07:08:32;3.70;;;3.40;;
10985;SDS011;5546;48.714;8.738;2022-09-12T07:11:07;4.03;;;3.60;;
10985;SDS011;5546;48.714;8.738;2022-09-12T07:13:37;5.67;;;3.53;;
10985;SDS011;5546;48.714;8.738;2022-09-12T07:16:03;4.03;;;3.70;;
10985;SDS011;5546;48.714;8.738;2022-09-12T07:18:30;3.83;;;3.53;;
10985;SDS011;5546;48.714;8.738;2022-09-12T07:21:00;3.40;;;3.10;;
10985;SDS011;5546;48.714;8.738;2022-09-12T07:23:26;2.90;;;2.70;;
10985;SDS011;5546;48.714;8.738;2022-09-12T07:25:53;2.47;;;2.28;;
10985;SDS011;5546;48.714;8.738;2022-09-12T07:28:21;4.30;;;2.55;;
10985;SDS011;5546;48.714;8.738;2022-09-12T07:30:47;2.70;;;2.50;;
10985;SDS011;5546;48.714;8.738;2022-09-12T07:33:13;3.67;;;2.72;;
10985;SDS011;5546;48.714;8.738;2022-09-12T07:35:38;2.60;;;2.40;;
10985;SDS011;5546;48.714;8.738;2022-09-12T07:38:04;2.45;;;2.25;;
10985;SDS011;5546;48.714;8.738;2022-09-12T07:40:29;2.58;;;2.38;;
10985;SDS011;5546;48.714;8.738;2022-09-12T07:42:55;3.30;;;2.97;;
10985;SDS011;5546;48.714;8.738;2022-09-12T07:45:20;2.40;;;2.20;;
10985;SDS011;5546;48.714;8.738;2022-09-12T07:47:46;2.50;;;2.30;;
10985;SDS011;5546;48.714;8.738;2022-09-12T07:50:11;2.22;;;2.00;;
10985;SDS011;5546;48.714;8.738;2022-09-12T07:52:37;2.38;;;2.17;;
10985;SDS011;5546;48.714;8.738;2022-09-12T07:55:02;2.40;;;2.20;;
10985;SDS011;5546;48.714;8.738;2022-09-12T07:57:28;3.63;;;2.05;;
10985;SDS011;5546;48.714;8.738;2022-09-12T07:59:54;2.70;;;2.50;;
10985;SDS011;5546;48.714;8.738;2022-09-12T08:02:19;2.45;;;2.25;;
10985;SDS011;5546;48.714;8.738;2022-09-12T08:04:48;2.53;;;2.33;;
10985;SDS011;5546;48.714;8.738;2022-09-12T08:07:14;2.78;;;2.58;;
10985;SDS011;5546;48.714;8.738;2022-09-12T08:09:39;3.10;;;2.80;;
10985;SDS011;5546;48.714;8.738;2022-09-12T08:12:05;3.35;;;3.05;;
10985;SDS011;5546;48.714;8.738;2022-09-12T08:14:30;3.30;;;3.10;;
10985;SDS011;5546;48.714;8.738;2022-09-12T08:16:56;4.05;;;2.78;;
10985;SDS011;5546;48.714;8.738;2022-09-12T08:19:22;3.00;;;2.80;;
10985;SDS011;5546;48.714;8.738;2022-09-12T08:21:47;3.28;;;3.08;;
10985;SDS011;5546;48.714;8.738;2022-09-12T08:24:13;3.40;;;3.10;;
10985;SDS011;5546;48.714;8.738;2022-09-12T08:26:39;2.63;;;2.42;;
10985;SDS011;5546;48.714;8.738;2022-09-12T08:29:05;3.45;;;2.55;;
10985;SDS011;5546;48.714;8.738;2022-09-12T08:31:30;3.63;;;3.13;;
10985;SDS011;5546;48.714;8.738;2022-09-12T08:34:04;3.38;;;3.03;;
10985;SDS011;5546;48.714;8.738;2022-09-12T08:36:30;2.40;;;2.20;;
10985;SDS011;5546;48.714;8.738;2022-09-12T08:38:59;2.85;;;2.58;;
10985;SDS011;5546;48.714;8.738;2022-09-12T08:41:32;2.65;;;2.45;;
10985;SDS011;5546;48.714;8.738;2022-09-12T08:49:09;2.75;;;2.55;;
10985;SDS011;5546;48.714;8.738;2022-09-12T08:51:38;3.78;;;2.85;;
10985;SDS011;5546;48.714;8.738;2022-09-12T08:54:05;2.63;;;2.42;;
10985;SDS011;5546;48.714;8.738;2022-09-12T08:56:43;3.08;;;2.50;;
10985;SDS011;5546;48.714;8.738;2022-09-12T08:59:09;2.70;;;2.45;;
10985;SDS011;5546;48.714;8.738;2022-09-12T09:01:36;2.70;;;2.50;;
10985;SDS011;5546;48.714;8.738;2022-09-12T09:04:14;2.63;;;2.40;;
10985;SDS011;5546;48.714;8.738;2022-09-12T09:15:16;2.83;;;2.60;;
10985;SDS011;5546;48.714;8.738;2022-09-12T09:23:28;2.15;;;2.00;;
10985;SDS011;5546;48.714;8.738;2022-09-12T09:28:54;2.50;;;2.30;;
10985;SDS011;5546;48.714;8.738;2022-09-12T09:31:32;2.97;;;2.30;;
10985;SDS011;5546;48.714;8.738;2022-09-12T09:34:04;2.20;;;2.05;;
10985;SDS011;5546;48.714;8.738;2022-09-12T09:42:10;2.47;;;2.28;;
10985;SDS011;5546;48.714;8.738;2022-09-12T09:45:10;8.25;;;2.50;;
10985;SDS011;5546;48.714;8.738;2022-09-12T09:47:40;2.72;;;2.25;;
10985;SDS011;5546;48.714;8.738;2022-09-12T09:50:10;2.35;;;2.15;;
10985;SDS011;5546;48.714;8.738;2022-09-12T09:52:38;2.38;;;1.92;;
10985;SDS011;5546;48.714;8.738;2022-09-12T09:55:05;2.05;;;1.92;;
10985;SDS011;5546;48.714;8.738;2022-09-12T09:57:42;2.85;;;1.70;;
10985;SDS011;5546;48.714;8.738;2022-09-12T10:00:19;2.78;;;1.95;;
10985;SDS011;5546;48.714;8.738;2022-09-12T10:02:59;2.08;;;1.88;;
10985;SDS011;5546;48.714;8.738;2022-09-12T10:05:32;3.90;;;2.75;;
10985;SDS011;5546;48.714;8.738;2022-09-12T10:08:18;2.10;;;1.88;;
10985;SDS011;5546;48.714;8.738;2022-09-12T10:10:52;2.00;;;1.80;;
10985;SDS011;5546;48.714;8.738;2022-09-12T10:13:24;2.85;;;1.83;;
10985;SDS011;5546;48.714;8.738;2022-09-12T10:18:46;2.92;;;1.80;;
10985;SDS011;5546;48.714;8.738;2022-09-12T10:23:46;1.90;;;1.80;;
10985;SDS011;5546;48.714;8.738;2022-09-12T10:26:23;2.00;;;1.90;;
10985;SDS011;5546;48.714;8.738;2022-09-12T10:28:51;2.00;;;1.80;;
10985;SDS011;5546;48.714;8.738;2022-09-12T10:31:23;2.70;;;1.70;;
10985;SDS011;5546;48.714;8.738;2022-09-12T10:33:53;2.15;;;1.88;;
10985;SDS011;5546;48.714;8.738;2022-09-12T10:36:21;3.05;;;1.95;;
10985;SDS011;5546;48.714;8.738;2022-09-12T10:38:49;2.00;;;1.90;;
10985;SDS011;5546;48.714;8.738;2022-09-12T10:41:17;2.45;;;1.88;;
10985;SDS011;5546;48.714;8.738;2022-09-12T10:43:44;4.78;;;1.58;;
10985;SDS011;5546;48.714;8.738;2022-09-12T10:48:40;2.10;;;1.67;;
10985;SDS011;5546;48.714;8.738;2022-09-12T10:51:14;1.80;;;1.70;;
10985;SDS011;5546;48.714;8.738;2022-09-12T10:54:02;1.70;;;1.60;;
10985;SDS011;5546;48.714;8.738;2022-09-12T10:56:31;1.80;;;1.70;;
10985;SDS011;5546;48.714;8.738;2022-09-12T11:01:54;1.70;;;1.60;;
10985;SDS011;5546;48.714;8.738;2022-09-12T11:09:41;1.92;;;1.83;;
10985;SDS011;5546;48.714;8.738;2022-09-12T11:12:14;1.92;;;1.60;;
10985;SDS011;5546;48.714;8.738;2022-09-12T11:17:48;9.45;;;8.65;;
10985;SDS011;5546;48.714;8.738;2022-09-12T11:26:20;1.50;;;1.40;;
10985;SDS011;5546;48.714;8.738;2022-09-12T11:29:20;3.47;;;1.90;;
10985;SDS011;5546;48.714;8.738;2022-09-12T11:40:01;1.50;;;1.40;;
10985;SDS011;5546;48.714;8.738;2022-09-12T11:42:52;1.77;;;1.30;;
10985;SDS011;5546;48.714;8.738;2022-09-12T11:51:04;1.50;;;1.40;;
10985;SDS011;5546;48.714;8.738;2022-09-12T11:53:39;1.50;;;1.40;;
10985;SDS011;5546;48.714;8.738;2022-09-12T11:56:10;1.60;;;1.20;;
10985;SDS011;5546;48.714;8.738;2022-09-12T11:58:41;2.42;;;1.70;;
10985;SDS011;5546;48.714;8.738;2022-09-12T12:01:11;1.10;;;1.10;;
10985;SDS011;5546;48.714;8.738;2022-09-12T12:03:40;1.75;;;1.40;;
10985;SDS011;5546;48.714;8.738;2022-09-12T12:06:11;2.97;;;1.20;;
10985;SDS011;5546;48.714;8.738;2022-09-12T12:08:46;1.80;;;1.20;;
10985;SDS011;5546;48.714;8.738;2022-09-12T12:11:13;1.98;;;1.55;;
10985;SDS011;5546;48.714;8.738;2022-09-12T12:14:01;2.28;;;1.40;;
10985;SDS011;5546;48.714;8.738;2022-09-12T12:16:39;1.67;;;1.40;;
10985;SDS011;5546;48.714;8.738;2022-09-12T12:21:41;1.40;;;1.30;;
10985;SDS011;5546;48.714;8.738;2022-09-12T12:27:02;1.92;;;1.42;;
10985;SDS011;5546;48.714;8.738;2022-09-12T12:29:46;1.30;;;1.20;;
10985;SDS011;5546;48.714;8.738;2022-09-12T12:34:41;1.75;;;1.27;;
10985;SDS011;5546;48.714;8.738;2022-09-12T12:47:48;1.30;;;1.20;;
10985;SDS011;5546;48.714;8.738;2022-09-12T12:52:48;1.20;;;1.10;;
10985;SDS011;5546;48.714;8.738;2022-09-12T12:55:24;1.15;;;1.05;;
10985;SDS011;5546;48.714;8.738;2022-09-12T12:57:53;1.13;;;0.98;;
10985;SDS011;5546;48.714;8.738;2022-09-12T13:03:00;1.30;;;1.20;;
10985;SDS011;5546;48.714;8.738;2022-09-12T13:05:50;2.25;;;1.27;;
10985;SDS011;5546;48.714;8.738;2022-09-12T13:10:48;1.55;;;1.20;;
10985;SDS011;5546;48.714;8.738;2022-09-12T13:16:01;1.20;;;1.10;;
10985;SDS011;5546;48.714;8.738;2022-09-12T13:18:29;1.08;;;1.00;;
10985;SDS011;5546;48.714;8.738;2022-09-12T13:23:58;2.65;;;1.10;;
10985;SDS011;5546;48.714;8.738;2022-09-12T13:26:33;1.42;;;1.25;;
10985;SDS011;5546;48.714;8.738;2022-09-12T13:29:09;2.28;;;1.13;;
10985;SDS011;5546;48.714;8.738;2022-09-12T13:31:35;2.03;;;1.92;;
10985;SDS011;5546;48.714;8.738;2022-09-12T13:34:03;2.00;;;1.20;;
10985;SDS011;5546;48.714;8.738;2022-09-12T13:39:48;1.23;;;1.10;;
10985;SDS011;5546;48.714;8.738;2022-09-12T13:42:39;1.38;;;1.10;;
10985;SDS011;5546;48.714;8.738;2022-09-12T13:45:10;1.58;;;1.42;;
10985;SDS011;5546;48.714;8.738;2022-09-12T13:47:46;2.45;;;1.10;;
10985;SDS011;5546;48.714;8.738;2022-09-12T13:50:21;7.13;;;1.95;;
10985;SDS011;5546;48.714;8.738;2022-09-12T13:52:59;3.03;;;1.20;;
10985;SDS011;5546;48.714;8.738;2022-09-12T13:55:31;1.20;;;1.10;;
10985;SDS011;5546;48.714;8.738;2022-09-12T13:58:03;1.38;;;1.17;;
10985;SDS011;5546;48.714;8.738;2022-09-12T14:00:30;3.70;;;1.50;;
10985;SDS011;5546;48.714;8.738;2022-09-12T14:02:58;4.45;;;1.70;;
10985;SDS011;5546;48.714;8.738;2022-09-12T14:05:43;1.55;;;1.30;;
10985;SDS011;5546;48.714;8.738;2022-09-12T14:08:18;1.83;;;1.52;;
10985;SDS011;5546;48.714;8.738;2022-09-12T14:10:45;1.20;;;1.10;;
10985;SDS011;5546;48.714;8.738;2022-09-12T14:13:15;1.88;;;1.00;;
10985;SDS011;5546;48.714;8.738;2022-09-12T14:15:45;2.75;;;1.20;;
10985;SDS011;5546;48.714;8.738;2022-09-12T14:18:28;1.33;;;1.00;;
10985;SDS011;5546;48.714;8.738;2022-09-12T14:21:07;6.25;;;2.80;;
10985;SDS011;5546;48.714;8.738;2022-09-12T14:23:36;8.65;;;3.55;;
10985;SDS011;5546;48.714;8.738;2022-09-12T14:26:07;2.10;;;1.40;;
10985;SDS011;5546;48.714;8.738;2022-09-12T14:28:37;1.50;;;1.20;;
10985;SDS011;5546;48.714;8.738;2022-09-12T14:33:46;4.30;;;1.70;;
10985;SDS011;5546;48.714;8.738;2022-09-12T14:38:54;3.85;;;2.40;;
10985;SDS011;5546;48.714;8.738;2022-09-12T14:41:59;2.03;;;1.40;;
10985;SDS011;5546;48.714;8.738;2022-09-12T14:44:16;1.70;;;1.40;;
10985;SDS011;5546;48.714;8.738;2022-09-12T14:46:44;4.53;;;1.40;;
10985;SDS011;5546;48.714;8.738;2022-09-12T14:49:18;2.70;;;1.80;;
10985;SDS011;5546;48.714;8.738;2022-09-12T14:52:02;1.70;;;1.60;;
10985;SDS011;5546;48.714;8.738;2022-09-12T14:56:57;1.90;;;1.55;;
10985;SDS011;5546;48.714;8.738;2022-09-12T15:04:51;3.35;;;1.40;;
10985;SDS011;5546;48.714;8.738;2022-09-12T15:07:41;1.42;;;1.10;;
10985;SDS011;5546;48.714;8.738;2022-09-12T15:10:36;1.42;;;1.33;;
10985;SDS011;5546;48.714;8.738;2022-09-12T15:15:33;3.42;;;1.45;;
10985;SDS011;5546;48.714;8.738;2022-09-12T15:18:00;2.45;;;1.40;;
10985;SDS011;5546;48.714;8.738;2022-09-12T15:20:26;2.85;;;1.63;;
10985;SDS011;5546;48.714;8.738;2022-09-12T15:22:51;1.73;;;1.27;;
10985;SDS011;5546;48.714;8.738;2022-09-12T15:25:17;3.17;;;1.42;;
10985;SDS011;5546;48.714;8.738;2022-09-12T15:27:46;1.25;;;1.15;;
10985;SDS011;5546;48.714;8.738;2022-09-12T15:30:14;1.42;;;1.33;;
10985;SDS011;5546;48.714;8.738;2022-09-12T15:32:40;1.30;;;1.13;;
10985;SDS011;5546;48.714;8.738;2022-09-12T15:35:14;3.05;;;1.20;;
10985;SDS011;5546;48.714;8.738;2022-09-12T15:37:41;1.30;;;1.20;;
10985;SDS011;5546;48.714;8.738;2022-09-12T15:40:08;2.63;;;1.50;;
10985;SDS011;5546;48.714;8.738;2022-09-12T15:42:35;2.15;;;1.17;;
10985;SDS011;5546;48.714;8.738;2022-09-12T15:45:00;2.63;;;1.40;;
10985;SDS011;5546;48.714;8.738;2022-09-12T15:47:26;1.60;;;1.40;;
10985;SDS011;5546;48.714;8.738;2022-09-12T15:49:51;1.67;;;1.40;;
10985;SDS011;5546;48.714;8.738;2022-09-12T15:52:17;2.08;;;1.30;;
10985;SDS011;5546;48.714;8.738;2022-09-12T15:54:42;1.77;;;1.20;;
10985;SDS011;5546;48.714;8.738;2022-09-12T15:57:08;1.20;;;1.10;;
10985;SDS011;5546;48.714;8.738;2022-09-12T15:59:34;3.25;;;1.20;;
10985;SDS011;5546;48.714;8.738;2022-09-12T16:01:59;1.42;;;1.33;;
10985;SDS011;5546;48.714;8.738;2022-09-12T16:04:27;4.95;;;1.40;;
10985;SDS011;5546;48.714;8.738;2022-09-12T16:06:54;1.58;;;1.10;;
10985;SDS011;5546;48.714;8.738;2022-09-12T16:09:20;4.25;;;1.60;;
10985;SDS011;5546;48.714;8.738;2022-09-12T16:11:46;1.77;;;1.60;;
10985;SDS011;5546;48.714;8.738;2022-09-12T16:14:12;1.10;;;1.10;;
10985;SDS011;5546;48.714;8.738;2022-09-12T16:16:38;1.50;;;1.10;;
10985;SDS011;5546;48.714;8.738;2022-09-12T16:19:04;2.30;;;1.10;;
10985;SDS011;5546;48.714;8.738;2022-09-12T16:21:30;2.50;;;2.30;;
10985;SDS011;5546;48.714;8.738;2022-09-12T16:23:56;2.78;;;1.70;;
10985;SDS011;5546;48.714;8.738;2022-09-12T16:26:21;3.78;;;1.50;;
10985;SDS011;5546;48.714;8.738;2022-09-12T16:28:52;4.60;;;1.75;;
10985;SDS011;5546;48.714;8.738;2022-09-12T16:31:19;1.70;;;1.60;;
10985;SDS011;5546;48.714;8.738;2022-09-12T16:33:44;3.03;;;1.83;;
10985;SDS011;5546;48.714;8.738;2022-09-12T16:36:14;3.72;;;1.42;;
10985;SDS011;5546;48.714;8.738;2022-09-12T16:38:42;3.58;;;1.30;;
10985;SDS011;5546;48.714;8.738;2022-09-12T16:41:12;2.40;;;1.20;;
10985;SDS011;5546;48.714;8.738;2022-09-12T16:43:38;1.77;;;1.40;;
10985;SDS011;5546;48.714;8.738;2022-09-12T16:46:08;2.67;;;1.50;;
10985;SDS011;5546;48.714;8.738;2022-09-12T16:48:35;7.23;;;2.13;;
10985;SDS011;5546;48.714;8.738;2022-09-12T16:51:02;1.83;;;1.40;;
10985;SDS011;5546;48.714;8.738;2022-09-12T16:53:30;2.10;;;1.50;;
10985;SDS011;5546;48.714;8.738;2022-09-12T16:55:57;1.30;;;1.20;;
10985;SDS011;5546;48.714;8.738;2022-09-12T16:58:23;1.85;;;1.27;;
10985;SDS011;5546;48.714;8.738;2022-09-12T17:00:49;4.20;;;1.73;;
10985;SDS011;5546;48.714;8.738;2022-09-12T17:03:27;4.10;;;1.50;;
10985;SDS011;5546;48.714;8.738;2022-09-12T17:06:00;2.30;;;1.40;;
10985;SDS011;5546;48.714;8.738;2022-09-12T17:08:37;2.33;;;1.47;;
10985;SDS011;5546;48.714;8.738;2022-09-12T17:11:06;1.90;;;1.40;;
10985;SDS011;5546;48.714;8.738;2022-09-12T17:13:33;6.53;;;1.60;;
10985;SDS011;5546;48.714;8.738;2022-09-12T17:15:59;2.20;;;1.57;;
10985;SDS011;5546;48.714;8.738;2022-09-12T17:18:28;5.63;;;1.60;;
10985;SDS011;5546;48.714;8.738;2022-09-12T17:20:53;2.33;;;1.60;;
10985;SDS011;5546;48.714;8.738;2022-09-12T17:23:19;3.73;;;1.30;;
10985;SDS011;5546;48.714;8.738;2022-09-12T17:25:45;1.77;;;1.47;;
10985;SDS011;5546;48.714;8.738;2022-09-12T17:28:15;3.53;;;1.60;;
10985;SDS011;5546;48.714;8.738;2022-09-12T17:30:42;3.70;;;1.50;;
10985;SDS011;5546;48.714;8.738;2022-09-12T17:33:07;5.00;;;1.80;;
10985;SDS011;5546;48.714;8.738;2022-09-12T17:35:33;3.17;;;1.80;;
10985;SDS011;5546;48.714;8.738;2022-09-12T17:37:59;1.50;;;1.40;;
10985;SDS011;5546;48.714;8.738;2022-09-12T17:40:26;5.03;;;1.63;;
10985;SDS011;5546;48.714;8.738;2022-09-12T17:42:51;4.60;;;1.70;;
10985;SDS011;5546;48.714;8.738;2022-09-12T17:45:17;2.30;;;1.73;;
10985;SDS011;5546;48.714;8.738;2022-09-12T17:47:43;4.23;;;1.70;;
10985;SDS011;5546;48.714;8.738;2022-09-12T17:50:08;4.93;;;1.63;;
10985;SDS011;5546;48.714;8.738;2022-09-12T17:52:34;5.67;;;2.17;;
10985;SDS011;5546;48.714;8.738;2022-09-12T17:55:00;3.70;;;1.87;;
10985;SDS011;5546;48.714;8.738;2022-09-12T17:57:25;2.50;;;1.70;;
10985;SDS011;5546;48.714;8.738;2022-09-12T17:59:52;3.27;;;1.70;;
10985;SDS011;5546;48.714;8.738;2022-09-12T18:02:17;5.07;;;1.67;;
10985;SDS011;5546;48.714;8.738;2022-09-12T18:04:44;4.80;;;1.80;;
10985;SDS011;5546;48.714;8.738;2022-09-12T18:07:10;2.50;;;1.80;;